AAL2031 KFLL-KATL
Flight info
| Callsign | AAL2031 |
|---|---|
| Flight time | 1h 30m |
| Altitude | 30000 |
| Route | FRSBE2 STYMY Q77 MJAMS/N0445F290 Q77 SHRKS/N0445F300 LAIRI LARZZ JJEDI4 |
| Aircraft | B738/M-SDE2E3FGHIRWXY/LB1 |
Departure
| Time | 2026-05-04 23:24 |
|---|---|
| Airport | Fort Lauderdale Hollywood International Airport (KFLL) |
Arrival
| Time | 2026-05-05 00:54 |
|---|---|
| Airport | Hartsfield Jackson Atlanta International Airport (KATL) |
| Time | Latitude | Longitude | Altitude | Speed | Heading |
|---|---|---|---|---|---|
| 2026-05-04 22:37 | 26.07368 | -80.14013 | 24 ft | 0 kts | 269° |
| 2026-05-04 23:11 | 26.07368 | -80.14005 | 20 ft | 4 kts | 269° |
| 2026-05-04 23:12 | 26.07367 | -80.13975 | 20 ft | 4 kts | 289° |
| 2026-05-04 23:12 | 26.07356 | -80.13959 | 22 ft | 2 kts | 359° |
| 2026-05-04 23:12 | 26.07354 | -80.13959 | 22 ft | 0 kts | 0° |
| 2026-05-04 23:15 | 26.07356 | -80.13959 | 22 ft | 2 kts | 0° |
| 2026-05-04 23:15 | 26.07386 | -80.13958 | 20 ft | 7 kts | 1° |
| 2026-05-04 23:16 | 26.07449 | -80.13959 | 19 ft | 11 kts | 349° |
| 2026-05-04 23:16 | 26.07485 | -80.14021 | 21 ft | 10 kts | 271° |
| 2026-05-04 23:16 | 26.07486 | -80.14100 | 23 ft | 10 kts | 270° |
| 2026-05-04 23:16 | 26.07487 | -80.14187 | 23 ft | 13 kts | 270° |
| 2026-05-04 23:17 | 26.07487 | -80.14301 | 22 ft | 17 kts | 269° |
| 2026-05-04 23:17 | 26.07488 | -80.14443 | 23 ft | 19 kts | 270° |
| 2026-05-04 23:17 | 26.07489 | -80.14584 | 25 ft | 18 kts | 270° |
| 2026-05-04 23:17 | 26.07489 | -80.14722 | 23 ft | 18 kts | 270° |
| 2026-05-04 23:18 | 26.07488 | -80.14871 | 19 ft | 20 kts | 270° |
| 2026-05-04 23:18 | 26.07489 | -80.15020 | 19 ft | 19 kts | 270° |
| 2026-05-04 23:18 | 26.07490 | -80.15163 | 18 ft | 19 kts | 270° |
| 2026-05-04 23:18 | 26.07491 | -80.15311 | 15 ft | 19 kts | 270° |
| 2026-05-04 23:19 | 26.07491 | -80.15456 | 16 ft | 19 kts | 270° |
| 2026-05-04 23:19 | 26.07492 | -80.15598 | 18 ft | 18 kts | 271° |
| 2026-05-04 23:19 | 26.07494 | -80.15734 | 19 ft | 17 kts | 270° |
| 2026-05-04 23:19 | 26.07494 | -80.15865 | 20 ft | 17 kts | 270° |
| 2026-05-04 23:20 | 26.07495 | -80.15992 | 23 ft | 16 kts | 271° |
| 2026-05-04 23:20 | 26.07496 | -80.16122 | 25 ft | 18 kts | 270° |
| 2026-05-04 23:20 | 26.07496 | -80.16275 | 23 ft | 22 kts | 270° |
| 2026-05-04 23:20 | 26.07497 | -80.16455 | 23 ft | 22 kts | 272° |
| 2026-05-04 23:21 | 26.07520 | -80.16554 | 24 ft | 10 kts | 326° |
| 2026-05-04 23:21 | 26.07588 | -80.16562 | 24 ft | 5 kts | 359° |
| 2026-05-04 23:21 | 26.07593 | -80.16562 | 23 ft | 0 kts | 359° |
| 2026-05-04 23:22 | 26.07605 | -80.16562 | 23 ft | 8 kts | 359° |
| 2026-05-04 23:23 | 26.07683 | -80.16542 | 22 ft | 13 kts | 48° |
| 2026-05-04 23:23 | 26.07694 | -80.16416 | 25 ft | 26 kts | 90° |
| 2026-05-04 23:23 | 26.07691 | -80.15953 | 23 ft | 93 kts | 90° |
| 2026-05-04 23:23 | 26.07685 | -80.15007 | 19 ft | 149 kts | 91° |
| 2026-05-04 23:24 | 26.07701 | -80.13777 | 469 ft | 163 kts | 88° |
| 2026-05-04 23:24 | 26.07754 | -80.12514 | 1301 ft | 163 kts | 85° |
| 2026-05-04 23:24 | 26.07810 | -80.11171 | 1766 ft | 187 kts | 87° |
| 2026-05-04 23:24 | 26.07889 | -80.09617 | 1985 ft | 212 kts | 75° |
| 2026-05-04 23:25 | 26.08657 | -80.08164 | 2372 ft | 227 kts | 45° |
| 2026-05-04 23:25 | 26.09816 | -80.06990 | 3100 ft | 230 kts | 45° |
| 2026-05-04 23:25 | 26.11224 | -80.05913 | 3299 ft | 266 kts | 24° |
| 2026-05-04 23:25 | 26.13029 | -80.05361 | 3925 ft | 269 kts | 18° |
| 2026-05-04 23:26 | 26.14842 | -80.04725 | 4247 ft | 280 kts | 14° |
| 2026-05-04 23:26 | 26.16744 | -80.04871 | 5277 ft | 271 kts | 340° |
| 2026-05-04 23:26 | 26.18474 | -80.05631 | 6193 ft | 272 kts | 338° |
| 2026-05-04 23:26 | 26.20262 | -80.06382 | 6897 ft | 277 kts | 336° |
| 2026-05-04 23:27 | 26.21945 | -80.07394 | 7635 ft | 275 kts | 315° |
| 2026-05-04 23:27 | 26.23080 | -80.09087 | 8399 ft | 273 kts | 294° |
| 2026-05-04 23:27 | 26.23823 | -80.11036 | 9171 ft | 275 kts | 289° |
| 2026-05-04 23:27 | 26.24503 | -80.13041 | 9912 ft | 279 kts | 288° |
| 2026-05-04 23:28 | 26.25200 | -80.15082 | 10449 ft | 290 kts | 288° |
| 2026-05-04 23:28 | 26.26066 | -80.17219 | 10629 ft | 315 kts | 296° |
| 2026-05-04 23:28 | 26.27249 | -80.19387 | 10791 ft | 338 kts | 300° |
| 2026-05-04 23:28 | 26.28563 | -80.21625 | 11221 ft | 350 kts | 301° |
| 2026-05-04 23:29 | 26.29895 | -80.23869 | 11862 ft | 352 kts | 301° |
| 2026-05-04 23:29 | 26.31238 | -80.26154 | 12585 ft | 353 kts | 300° |
| 2026-05-04 23:29 | 26.32580 | -80.28468 | 13248 ft | 355 kts | 300° |
| 2026-05-04 23:29 | 26.33920 | -80.30802 | 13869 ft | 358 kts | 300° |
| 2026-05-04 23:30 | 26.35259 | -80.33151 | 14441 ft | 360 kts | 300° |
| 2026-05-04 23:30 | 26.36599 | -80.35510 | 15058 ft | 360 kts | 299° |
| 2026-05-04 23:30 | 26.37942 | -80.37881 | 15651 ft | 362 kts | 299° |
| 2026-05-04 23:30 | 26.39287 | -80.40257 | 16215 ft | 363 kts | 299° |
| 2026-05-04 23:31 | 26.40642 | -80.42653 | 16775 ft | 365 kts | 299° |
| 2026-05-04 23:31 | 26.42000 | -80.45056 | 17357 ft | 367 kts | 299° |
| 2026-05-04 23:31 | 26.42903 | -80.46654 | 17734 ft | 368 kts | 299° |
| 2026-05-04 23:31 | 26.44719 | -80.49868 | 18451 ft | 370 kts | 299° |
| 2026-05-04 23:32 | 26.46098 | -80.52311 | 18912 ft | 372 kts | 299° |
| 2026-05-04 23:32 | 26.47586 | -80.54689 | 19341 ft | 379 kts | 309° |
| 2026-05-04 23:32 | 26.48943 | -80.56002 | 19645 ft | 386 kts | 320° |
| 2026-05-04 23:32 | 26.51290 | -80.57439 | 20087 ft | 397 kts | 334° |
| 2026-05-04 23:33 | 26.53947 | -80.58378 | 20527 ft | 402 kts | 338° |
| 2026-05-04 23:33 | 26.56658 | -80.59215 | 20957 ft | 406 kts | 339° |
| 2026-05-04 23:33 | 26.59400 | -80.60036 | 21339 ft | 409 kts | 339° |
| 2026-05-04 23:33 | 26.62156 | -80.60867 | 21760 ft | 411 kts | 339° |
| 2026-05-04 23:34 | 26.64919 | -80.61716 | 22185 ft | 413 kts | 339° |
| 2026-05-04 23:34 | 26.67692 | -80.62582 | 22581 ft | 415 kts | 338° |
| 2026-05-04 23:34 | 26.70475 | -80.63462 | 22972 ft | 417 kts | 338° |
| 2026-05-04 23:34 | 26.73277 | -80.64353 | 23351 ft | 419 kts | 338° |
| 2026-05-04 23:35 | 26.76090 | -80.65250 | 23709 ft | 421 kts | 338° |
| 2026-05-04 23:35 | 26.78916 | -80.66151 | 24030 ft | 423 kts | 338° |
| 2026-05-04 23:35 | 26.81754 | -80.67056 | 24368 ft | 424 kts | 338° |
| 2026-05-04 23:35 | 26.84597 | -80.67962 | 24688 ft | 426 kts | 338° |
| 2026-05-04 23:36 | 26.87455 | -80.68874 | 25040 ft | 428 kts | 338° |
| 2026-05-04 23:36 | 26.90330 | -80.69792 | 25352 ft | 430 kts | 338° |
| 2026-05-04 23:36 | 26.93158 | -80.70729 | 25663 ft | 430 kts | 336° |
| 2026-05-04 23:36 | 26.96003 | -80.71780 | 25983 ft | 430 kts | 335° |
| 2026-05-04 23:37 | 26.98834 | -80.72877 | 26289 ft | 431 kts | 334° |
| 2026-05-04 23:37 | 27.01679 | -80.73986 | 26586 ft | 433 kts | 334° |
| 2026-05-04 23:37 | 27.04533 | -80.75092 | 26878 ft | 435 kts | 334° |
| 2026-05-04 23:37 | 27.07402 | -80.76193 | 27215 ft | 435 kts | 334° |
| 2026-05-04 23:38 | 27.10270 | -80.77285 | 27646 ft | 433 kts | 334° |
| 2026-05-04 23:38 | 27.13117 | -80.78363 | 28114 ft | 431 kts | 334° |
| 2026-05-04 23:38 | 27.15951 | -80.79436 | 28555 ft | 429 kts | 334° |
| 2026-05-04 23:38 | 27.18780 | -80.80508 | 28976 ft | 428 kts | 334° |
| 2026-05-04 23:39 | 27.21605 | -80.81581 | 29374 ft | 428 kts | 334° |
| 2026-05-04 23:39 | 27.24421 | -80.82651 | 29795 ft | 426 kts | 334° |
| 2026-05-04 23:39 | 27.27225 | -80.83716 | 30221 ft | 425 kts | 334° |
| 2026-05-04 23:39 | 27.30020 | -80.84779 | 30565 ft | 424 kts | 334° |
| 2026-05-04 23:40 | 27.32776 | -80.85830 | 30861 ft | 423 kts | 333° |
| 2026-05-04 23:40 | 27.35556 | -80.86940 | 31021 ft | 425 kts | 333° |
| 2026-05-04 23:40 | 27.41130 | -80.89250 | 31010 ft | 426 kts | 332° |
| 2026-05-04 23:41 | 27.46645 | -80.91540 | 31034 ft | 419 kts | 333° |
| 2026-05-04 23:41 | 27.52097 | -80.93795 | 31030 ft | 415 kts | 333° |
| 2026-05-04 23:42 | 27.57508 | -80.96031 | 31043 ft | 413 kts | 333° |
| 2026-05-04 23:42 | 27.62881 | -80.98253 | 31044 ft | 413 kts | 333° |
| 2026-05-04 23:43 | 27.68321 | -81.00505 | 31040 ft | 414 kts | 333° |
| 2026-05-04 23:43 | 27.73711 | -81.02738 | 31042 ft | 416 kts | 333° |
| 2026-05-04 23:44 | 27.79161 | -81.04997 | 31067 ft | 418 kts | 333° |
| 2026-05-04 23:44 | 27.84636 | -81.07270 | 31043 ft | 420 kts | 333° |
| 2026-05-04 23:45 | 27.90134 | -81.09553 | 31038 ft | 421 kts | 333° |
| 2026-05-04 23:45 | 27.95648 | -81.11846 | 31046 ft | 422 kts | 333° |
| 2026-05-04 23:46 | 28.01156 | -81.14139 | 31046 ft | 421 kts | 333° |
| 2026-05-04 23:46 | 28.06594 | -81.16562 | 31054 ft | 418 kts | 329° |
| 2026-05-04 23:47 | 28.11831 | -81.19299 | 31056 ft | 417 kts | 329° |
| 2026-05-04 23:47 | 28.17091 | -81.22066 | 31063 ft | 416 kts | 329° |
| 2026-05-04 23:48 | 28.22356 | -81.24791 | 31063 ft | 416 kts | 329° |
| 2026-05-04 23:48 | 28.27625 | -81.27506 | 31064 ft | 415 kts | 329° |
| 2026-05-04 23:49 | 28.32876 | -81.30214 | 31070 ft | 414 kts | 329° |
| 2026-05-04 23:49 | 28.38120 | -81.32906 | 31063 ft | 413 kts | 329° |
| 2026-05-04 23:50 | 28.43354 | -81.35571 | 31065 ft | 411 kts | 329° |
| 2026-05-04 23:50 | 28.48532 | -81.38212 | 31062 ft | 410 kts | 329° |
| 2026-05-04 23:51 | 28.53740 | -81.40875 | 31062 ft | 409 kts | 329° |
| 2026-05-04 23:51 | 28.58929 | -81.43532 | 31064 ft | 408 kts | 329° |
| 2026-05-04 23:52 | 28.64111 | -81.46189 | 31062 ft | 408 kts | 329° |
| 2026-05-04 23:52 | 28.69294 | -81.48850 | 31100 ft | 408 kts | 329° |
| 2026-05-04 23:53 | 28.74422 | -81.51485 | 31071 ft | 409 kts | 329° |
| 2026-05-04 23:53 | 28.79617 | -81.54157 | 31059 ft | 410 kts | 329° |
| 2026-05-04 23:54 | 28.84819 | -81.56835 | 31058 ft | 410 kts | 329° |
| 2026-05-04 23:54 | 28.90023 | -81.59515 | 31062 ft | 411 kts | 330° |
| 2026-05-04 23:55 | 28.95615 | -81.61262 | 31061 ft | 427 kts | 346° |
| 2026-05-04 23:56 | 29.04546 | -81.62039 | 31071 ft | 429 kts | 348° |
| 2026-05-04 23:56 | 29.10512 | -81.62544 | 31061 ft | 430 kts | 348° |
| 2026-05-04 23:57 | 29.16432 | -81.63076 | 31063 ft | 429 kts | 347° |
| 2026-05-04 23:57 | 29.22387 | -81.63623 | 31066 ft | 429 kts | 347° |
| 2026-05-04 23:58 | 29.28346 | -81.64173 | 31101 ft | 429 kts | 347° |
| 2026-05-04 23:58 | 29.34304 | -81.64723 | 31079 ft | 430 kts | 347° |
| 2026-05-04 23:59 | 29.40268 | -81.65273 | 31073 ft | 430 kts | 347° |
| 2026-05-04 23:59 | 29.46229 | -81.65824 | 31071 ft | 427 kts | 347° |
| 2026-05-05 00:00 | 29.52141 | -81.66369 | 31070 ft | 425 kts | 347° |
| 2026-05-05 00:00 | 29.57997 | -81.66912 | 31115 ft | 425 kts | 347° |
| 2026-05-05 00:01 | 29.63903 | -81.67462 | 31090 ft | 425 kts | 347° |
| 2026-05-05 00:01 | 29.69798 | -81.68009 | 31081 ft | 425 kts | 347° |
| 2026-05-05 00:02 | 29.75707 | -81.68554 | 31079 ft | 425 kts | 347° |
| 2026-05-05 00:02 | 29.81571 | -81.69094 | 31077 ft | 425 kts | 347° |
| 2026-05-05 00:03 | 29.87477 | -81.69638 | 31085 ft | 426 kts | 347° |
| 2026-05-05 00:03 | 29.93397 | -81.70185 | 31080 ft | 426 kts | 346° |
| 2026-05-05 00:04 | 29.99313 | -81.70732 | 31076 ft | 426 kts | 347° |
| 2026-05-05 00:04 | 30.05228 | -81.71280 | 31091 ft | 426 kts | 347° |
| 2026-05-05 00:05 | 30.11151 | -81.71829 | 31090 ft | 426 kts | 347° |
| 2026-05-05 00:05 | 30.17071 | -81.72379 | 31105 ft | 427 kts | 346° |
| 2026-05-05 00:06 | 30.22993 | -81.72929 | 31092 ft | 427 kts | 346° |
| 2026-05-05 00:06 | 30.28913 | -81.73479 | 31099 ft | 426 kts | 346° |
| 2026-05-05 00:07 | 30.34773 | -81.74025 | 31102 ft | 425 kts | 346° |
| 2026-05-05 00:07 | 30.40661 | -81.74574 | 31084 ft | 424 kts | 346° |
| 2026-05-05 00:08 | 30.46541 | -81.75124 | 31087 ft | 423 kts | 346° |
| 2026-05-05 00:08 | 30.52409 | -81.75673 | 31083 ft | 423 kts | 346° |
| 2026-05-05 00:09 | 30.58274 | -81.76222 | 31084 ft | 423 kts | 346° |
| 2026-05-05 00:09 | 30.63913 | -81.77559 | 31092 ft | 405 kts | 331° |
| 2026-05-05 00:10 | 30.68940 | -81.80345 | 31092 ft | 399 kts | 325° |
| 2026-05-05 00:10 | 30.73876 | -81.83252 | 31109 ft | 401 kts | 326° |
| 2026-05-05 00:11 | 30.78870 | -81.86173 | 31094 ft | 402 kts | 326° |
| 2026-05-05 00:11 | 30.83885 | -81.89090 | 31071 ft | 403 kts | 326° |
| 2026-05-05 00:12 | 30.88914 | -81.92010 | 31083 ft | 403 kts | 326° |
| 2026-05-05 00:12 | 30.93942 | -81.94932 | 31063 ft | 404 kts | 326° |
| 2026-05-05 00:13 | 30.98969 | -81.97856 | 31091 ft | 403 kts | 326° |
| 2026-05-05 00:13 | 31.03999 | -82.00788 | 31096 ft | 404 kts | 326° |
| 2026-05-05 00:14 | 31.09007 | -82.03709 | 31065 ft | 405 kts | 326° |
| 2026-05-05 00:14 | 31.14052 | -82.06656 | 31063 ft | 405 kts | 326° |
| 2026-05-05 00:15 | 31.19093 | -82.09603 | 31060 ft | 405 kts | 326° |
| 2026-05-05 00:15 | 31.24134 | -82.12553 | 31062 ft | 405 kts | 326° |
| 2026-05-05 00:16 | 31.29180 | -82.15511 | 31094 ft | 406 kts | 327° |
| 2026-05-05 00:16 | 31.34246 | -82.18486 | 31069 ft | 408 kts | 327° |
| 2026-05-05 00:17 | 31.39324 | -82.21470 | 31063 ft | 409 kts | 327° |
| 2026-05-05 00:17 | 31.43559 | -82.23961 | 31059 ft | 410 kts | 327° |
| 2026-05-05 00:18 | 31.48681 | -82.26977 | 31052 ft | 412 kts | 327° |
| 2026-05-05 00:18 | 31.54632 | -82.30485 | 31051 ft | 412 kts | 327° |
| 2026-05-05 00:19 | 31.59757 | -82.33512 | 31053 ft | 413 kts | 328° |
| 2026-05-05 00:19 | 31.64063 | -82.36057 | 31051 ft | 414 kts | 328° |
| 2026-05-05 00:20 | 31.69216 | -82.39106 | 31048 ft | 415 kts | 328° |
| 2026-05-05 00:20 | 31.74333 | -82.42138 | 31043 ft | 414 kts | 328° |
| 2026-05-05 00:21 | 31.79484 | -82.45194 | 31037 ft | 413 kts | 328° |
| 2026-05-05 00:21 | 31.84612 | -82.48240 | 31039 ft | 412 kts | 328° |
| 2026-05-05 00:22 | 31.89733 | -82.51287 | 31067 ft | 412 kts | 328° |
| 2026-05-05 00:22 | 31.94830 | -82.54328 | 31053 ft | 413 kts | 327° |
| 2026-05-05 00:23 | 31.99416 | -82.58235 | 31062 ft | 405 kts | 315° |
| 2026-05-05 00:23 | 32.03667 | -82.62634 | 31050 ft | 407 kts | 315° |
| 2026-05-05 00:24 | 32.07941 | -82.67034 | 31052 ft | 408 kts | 315° |
| 2026-05-05 00:24 | 32.12234 | -82.71426 | 31052 ft | 409 kts | 315° |
| 2026-05-05 00:25 | 32.16470 | -82.75750 | 31037 ft | 396 kts | 315° |
| 2026-05-05 00:25 | 32.18567 | -82.77890 | 30735 ft | 389 kts | 315° |
| 2026-05-05 00:25 | 32.20565 | -82.79932 | 30452 ft | 383 kts | 315° |
| 2026-05-05 00:25 | 32.22568 | -82.81984 | 30062 ft | 380 kts | 315° |
| 2026-05-05 00:26 | 32.24568 | -82.84036 | 29454 ft | 380 kts | 315° |
| 2026-05-05 00:26 | 32.26569 | -82.86090 | 28923 ft | 379 kts | 315° |
| 2026-05-05 00:26 | 32.28554 | -82.88127 | 28467 ft | 377 kts | 315° |
| 2026-05-05 00:26 | 32.30522 | -82.90146 | 28044 ft | 373 kts | 315° |
| 2026-05-05 00:27 | 32.32475 | -82.92152 | 27652 ft | 370 kts | 315° |
| 2026-05-05 00:27 | 32.34408 | -82.94138 | 27256 ft | 366 kts | 315° |
| 2026-05-05 00:27 | 32.36325 | -82.96109 | 26848 ft | 363 kts | 315° |
| 2026-05-05 00:27 | 32.38224 | -82.98062 | 26454 ft | 361 kts | 315° |
| 2026-05-05 00:28 | 32.40111 | -83.00003 | 26083 ft | 358 kts | 315° |
| 2026-05-05 00:28 | 32.41982 | -83.01926 | 25703 ft | 355 kts | 315° |
| 2026-05-05 00:28 | 32.43842 | -83.03840 | 25348 ft | 354 kts | 315° |
| 2026-05-05 00:28 | 32.45700 | -83.05753 | 24965 ft | 353 kts | 315° |
| 2026-05-05 00:29 | 32.47551 | -83.07661 | 24585 ft | 352 kts | 315° |
| 2026-05-05 00:29 | 32.49397 | -83.09564 | 24206 ft | 352 kts | 315° |
| 2026-05-05 00:29 | 32.51224 | -83.11449 | 23827 ft | 353 kts | 315° |
| 2026-05-05 00:29 | 32.53077 | -83.13363 | 23394 ft | 353 kts | 315° |
| 2026-05-05 00:30 | 32.54923 | -83.15268 | 22980 ft | 351 kts | 315° |
| 2026-05-05 00:30 | 32.56756 | -83.17161 | 22589 ft | 348 kts | 315° |
| 2026-05-05 00:30 | 32.58572 | -83.19038 | 22206 ft | 345 kts | 315° |
| 2026-05-05 00:30 | 32.60379 | -83.20908 | 21833 ft | 342 kts | 315° |
| 2026-05-05 00:31 | 32.62164 | -83.22758 | 21465 ft | 340 kts | 315° |
| 2026-05-05 00:31 | 32.63937 | -83.24597 | 21104 ft | 338 kts | 315° |
| 2026-05-05 00:31 | 32.65705 | -83.26434 | 20744 ft | 336 kts | 315° |
| 2026-05-05 00:31 | 32.67465 | -83.28263 | 20388 ft | 337 kts | 315° |
| 2026-05-05 00:32 | 32.69231 | -83.30099 | 20019 ft | 336 kts | 315° |
| 2026-05-05 00:32 | 32.70984 | -83.31923 | 19671 ft | 335 kts | 315° |
| 2026-05-05 00:32 | 32.72734 | -83.33744 | 19320 ft | 333 kts | 315° |
| 2026-05-05 00:32 | 32.74476 | -83.35558 | 18963 ft | 332 kts | 315° |
| 2026-05-05 00:33 | 32.76209 | -83.37363 | 18612 ft | 331 kts | 315° |
| 2026-05-05 00:33 | 32.77944 | -83.39172 | 18232 ft | 333 kts | 315° |
| 2026-05-05 00:33 | 32.79667 | -83.40971 | 17847 ft | 333 kts | 315° |
| 2026-05-05 00:33 | 32.81404 | -83.42783 | 17468 ft | 331 kts | 315° |
| 2026-05-05 00:34 | 32.83136 | -83.44591 | 17110 ft | 329 kts | 316° |
| 2026-05-05 00:34 | 32.84853 | -83.46384 | 16751 ft | 327 kts | 316° |
| 2026-05-05 00:34 | 32.86558 | -83.48167 | 16405 ft | 325 kts | 316° |
| 2026-05-05 00:34 | 32.88250 | -83.49936 | 16059 ft | 323 kts | 316° |
| 2026-05-05 00:35 | 32.89931 | -83.51695 | 15721 ft | 321 kts | 316° |
| 2026-05-05 00:35 | 32.91607 | -83.53449 | 15393 ft | 320 kts | 316° |
| 2026-05-05 00:35 | 32.93271 | -83.55192 | 15053 ft | 318 kts | 316° |
| 2026-05-05 00:35 | 32.94918 | -83.56917 | 14700 ft | 312 kts | 316° |
| 2026-05-05 00:36 | 32.96541 | -83.58616 | 14335 ft | 310 kts | 317° |
| 2026-05-05 00:36 | 32.98138 | -83.60288 | 14047 ft | 308 kts | 317° |
| 2026-05-05 00:36 | 32.99218 | -83.61419 | 13873 ft | 306 kts | 317° |
| 2026-05-05 00:37 | 33.04649 | -83.67115 | 12633 ft | 304 kts | 317° |
| 2026-05-05 00:37 | 33.06242 | -83.68788 | 12283 ft | 304 kts | 317° |
| 2026-05-05 00:37 | 33.07806 | -83.70431 | 11930 ft | 304 kts | 317° |
| 2026-05-05 00:38 | 33.09387 | -83.72092 | 11597 ft | 303 kts | 316° |
| 2026-05-05 00:38 | 33.10952 | -83.73737 | 11261 ft | 296 kts | 316° |
| 2026-05-05 00:38 | 33.12480 | -83.75343 | 11146 ft | 290 kts | 316° |
| 2026-05-05 00:38 | 33.13990 | -83.76932 | 11019 ft | 290 kts | 316° |
| 2026-05-05 00:39 | 33.15515 | -83.78543 | 10703 ft | 296 kts | 316° |
| 2026-05-05 00:39 | 33.17063 | -83.80179 | 10404 ft | 297 kts | 316° |
| 2026-05-05 00:39 | 33.18607 | -83.81811 | 10095 ft | 296 kts | 316° |
| 2026-05-05 00:39 | 33.20107 | -83.83471 | 9795 ft | 293 kts | 313° |
| 2026-05-05 00:40 | 33.21537 | -83.85179 | 9494 ft | 290 kts | 313° |
| 2026-05-05 00:40 | 33.22940 | -83.86876 | 9208 ft | 283 kts | 313° |
| 2026-05-05 00:40 | 33.24309 | -83.88524 | 8937 ft | 276 kts | 313° |
| 2026-05-05 00:40 | 33.25625 | -83.90100 | 8810 ft | 258 kts | 313° |
| 2026-05-05 00:41 | 33.26853 | -83.91564 | 8673 ft | 241 kts | 312° |
| 2026-05-05 00:41 | 33.27999 | -83.92930 | 8507 ft | 226 kts | 312° |
| 2026-05-05 00:41 | 33.29116 | -83.94263 | 8105 ft | 223 kts | 312° |
| 2026-05-05 00:41 | 33.30193 | -83.95552 | 7958 ft | 217 kts | 312° |
| 2026-05-05 00:42 | 33.31238 | -83.96803 | 7867 ft | 215 kts | 312° |
| 2026-05-05 00:42 | 33.32320 | -83.98101 | 7797 ft | 220 kts | 312° |
| 2026-05-05 00:42 | 33.33399 | -83.99394 | 7708 ft | 224 kts | 312° |
| 2026-05-05 00:42 | 33.34496 | -84.00707 | 7618 ft | 223 kts | 312° |
| 2026-05-05 00:43 | 33.35586 | -84.02007 | 7542 ft | 219 kts | 314° |
| 2026-05-05 00:43 | 33.36898 | -84.02882 | 7415 ft | 221 kts | 351° |
| 2026-05-05 00:43 | 33.38423 | -84.02918 | 7388 ft | 220 kts | 358° |
| 2026-05-05 00:43 | 33.39972 | -84.02948 | 7296 ft | 224 kts | 357° |
| 2026-05-05 00:44 | 33.41512 | -84.02981 | 7204 ft | 218 kts | 357° |
| 2026-05-05 00:44 | 33.43003 | -84.03013 | 7072 ft | 209 kts | 357° |
| 2026-05-05 00:44 | 33.44441 | -84.03043 | 6991 ft | 205 kts | 357° |
| 2026-05-05 00:44 | 33.45868 | -84.03073 | 6923 ft | 205 kts | 357° |
| 2026-05-05 00:45 | 33.47268 | -84.03236 | 6867 ft | 205 kts | 347° |
| 2026-05-05 00:45 | 33.48666 | -84.03564 | 6793 ft | 205 kts | 346° |
| 2026-05-05 00:45 | 33.50073 | -84.03911 | 6728 ft | 204 kts | 346° |
| 2026-05-05 00:45 | 33.51448 | -84.04247 | 6643 ft | 204 kts | 346° |
| 2026-05-05 00:46 | 33.52844 | -84.04585 | 6567 ft | 205 kts | 346° |
| 2026-05-05 00:46 | 33.54245 | -84.04919 | 6495 ft | 205 kts | 347° |
| 2026-05-05 00:46 | 33.55646 | -84.05250 | 6403 ft | 205 kts | 346° |
| 2026-05-05 00:46 | 33.57050 | -84.05580 | 6322 ft | 205 kts | 347° |
| 2026-05-05 00:47 | 33.58452 | -84.05909 | 6244 ft | 205 kts | 347° |
| 2026-05-05 00:47 | 33.59854 | -84.06238 | 6163 ft | 205 kts | 347° |
| 2026-05-05 00:47 | 33.61236 | -84.06562 | 6084 ft | 205 kts | 346° |
| 2026-05-05 00:47 | 33.62500 | -84.07257 | 5952 ft | 200 kts | 311° |
| 2026-05-05 00:48 | 33.63112 | -84.08701 | 5774 ft | 194 kts | 276° |
| 2026-05-05 00:48 | 33.63195 | -84.10321 | 5536 ft | 194 kts | 267° |
| 2026-05-05 00:48 | 33.63192 | -84.11924 | 5270 ft | 190 kts | 266° |
| 2026-05-05 00:48 | 33.63186 | -84.13487 | 5043 ft | 185 kts | 266° |
| 2026-05-05 00:49 | 33.63177 | -84.14996 | 4823 ft | 176 kts | 266° |
| 2026-05-05 00:49 | 33.63173 | -84.16446 | 4630 ft | 172 kts | 266° |
| 2026-05-05 00:49 | 33.63171 | -84.17894 | 4465 ft | 175 kts | 265° |
| 2026-05-05 00:49 | 33.63172 | -84.19340 | 4308 ft | 170 kts | 265° |
| 2026-05-05 00:50 | 33.63173 | -84.20730 | 4100 ft | 163 kts | 266° |
| 2026-05-05 00:50 | 33.63174 | -84.22072 | 3909 ft | 160 kts | 265° |
| 2026-05-05 00:50 | 33.63175 | -84.23410 | 3763 ft | 161 kts | 265° |
| 2026-05-05 00:50 | 33.63175 | -84.24748 | 3614 ft | 159 kts | 265° |
| 2026-05-05 00:51 | 33.63177 | -84.26062 | 3441 ft | 155 kts | 265° |
| 2026-05-05 00:51 | 33.63178 | -84.27334 | 3276 ft | 154 kts | 265° |
| 2026-05-05 00:51 | 33.63178 | -84.28621 | 3107 ft | 155 kts | 265° |
| 2026-05-05 00:51 | 33.63179 | -84.29922 | 2916 ft | 157 kts | 265° |
| 2026-05-05 00:52 | 33.63175 | -84.31229 | 2671 ft | 156 kts | 265° |
| 2026-05-05 00:52 | 33.63170 | -84.32524 | 2394 ft | 154 kts | 265° |
| 2026-05-05 00:52 | 33.63179 | -84.33805 | 2148 ft | 153 kts | 266° |
| 2026-05-05 00:52 | 33.63191 | -84.35091 | 1984 ft | 153 kts | 264° |
| 2026-05-05 00:53 | 33.63184 | -84.36375 | 1792 ft | 154 kts | 265° |
| 2026-05-05 00:53 | 33.63177 | -84.37228 | 1693 ft | 154 kts | 268° |
| 2026-05-05 00:53 | 33.63185 | -84.38507 | 1461 ft | 153 kts | 266° |
| 2026-05-05 00:53 | 33.63183 | -84.40231 | 1239 ft | 157 kts | 266° |
| 2026-05-05 00:54 | 33.63185 | -84.41545 | 1077 ft | 156 kts | 268° |
| 2026-05-05 00:54 | 33.63187 | -84.42406 | 1009 ft | 147 kts | 268° |
| 2026-05-05 00:54 | 33.63182 | -84.43452 | 1006 ft | 96 kts | 270° |
| 2026-05-05 00:54 | 33.63188 | -84.43998 | 1003 ft | 35 kts | 282° |
| 2026-05-05 00:55 | 33.63243 | -84.44194 | 1004 ft | 19 kts | 300° |
| 2026-05-05 00:55 | 33.63294 | -84.44297 | 1005 ft | 13 kts | 298° |
| 2026-05-05 00:55 | 33.63345 | -84.44412 | 1005 ft | 19 kts | 298° |
| 2026-05-05 00:55 | 33.63361 | -84.44595 | 1005 ft | 23 kts | 270° |
| 2026-05-05 00:56 | 33.63366 | -84.44747 | 1005 ft | 11 kts | 291° |
| 2026-05-05 00:56 | 33.63427 | -84.44780 | 1005 ft | 11 kts | 1° |
| 2026-05-05 00:56 | 33.63528 | -84.44779 | 1005 ft | 19 kts | 360° |
| 2026-05-05 00:56 | 33.63639 | -84.44751 | 1005 ft | 17 kts | 43° |
| 2026-05-05 00:57 | 33.63664 | -84.44606 | 1005 ft | 20 kts | 89° |
| 2026-05-05 00:57 | 33.63663 | -84.44433 | 1005 ft | 22 kts | 90° |
| 2026-05-05 00:57 | 33.63663 | -84.44261 | 1006 ft | 19 kts | 90° |
| 2026-05-05 00:57 | 33.63675 | -84.44145 | 1006 ft | 13 kts | 52° |
| 2026-05-05 00:58 | 33.63751 | -84.44115 | 1005 ft | 12 kts | 358° |
| 2026-05-05 00:58 | 33.63810 | -84.44116 | 1005 ft | 6 kts | 359° |
| 2026-05-05 00:58 | 33.63839 | -84.44148 | 1005 ft | 6 kts | 279° |
| 2026-05-05 00:58 | 33.63840 | -84.44187 | 1005 ft | 2 kts | 269° |
| 2026-05-05 00:59 | 33.63840 | -84.44197 | 1005 ft | 1 kts | 269° |
| 2026-05-05 00:59 | 33.63840 | -84.44198 | 1005 ft | 0 kts | 269° |